createdAt,value
2023-04-06T00:01:51.139Z,31.85
2023-04-06T00:04:18.557Z,31.60
2023-04-06T00:06:46.114Z,33.42
2023-04-06T00:09:13.505Z,30.75
2023-04-06T00:11:41.173Z,23.27
2023-04-06T00:14:08.603Z,27.33
2023-04-06T00:16:37.362Z,25.35
2023-04-06T00:19:04.785Z,30.02
2023-04-06T00:21:33.147Z,27.50
2023-04-06T00:24:00.589Z,33.53
2023-04-06T00:26:27.973Z,28.20
2023-04-06T00:28:56.421Z,23.95
2023-04-06T00:31:24.481Z,26.23
2023-04-06T00:33:53.219Z,28.35
2023-04-06T00:36:20.778Z,39.22
2023-04-06T00:38:48.177Z,28.92
2023-04-06T00:41:15.817Z,23.27
2023-04-06T00:43:43.202Z,21.27
2023-04-06T00:46:10.694Z,23.17
2023-04-06T00:48:38.127Z,23.92
2023-04-06T00:51:07.553Z,21.00
2023-04-06T00:53:34.984Z,27.67
2023-04-06T00:56:03.301Z,25.95
2023-04-06T00:58:39.549Z,23.65
2023-04-06T01:01:09.007Z,25.45
2023-04-06T01:03:36.793Z,24.38
2023-04-06T01:06:04.473Z,21.90
2023-04-06T01:08:39.014Z,23.50
2023-04-06T01:11:20.032Z,20.27
2023-04-06T01:13:49.834Z,25.83
2023-04-06T01:16:37.647Z,26.95
2023-04-06T01:19:14.579Z,24.88
2023-04-06T01:21:54.084Z,31.35
2023-04-06T01:24:42.793Z,26.10
2023-04-06T01:27:16.870Z,26.40
2023-04-06T01:29:58.229Z,25.80
2023-04-06T01:32:57.822Z,29.13
2023-04-06T01:35:43.791Z,24.45
2023-04-06T01:38:15.546Z,31.40
2023-04-06T01:43:12.077Z,22.83
2023-04-06T01:48:30.408Z,27.42
2023-04-06T01:50:59.183Z,23.65
2023-04-06T01:53:31.502Z,22.17
2023-04-06T01:56:04.424Z,26.58
2023-04-06T01:58:40.937Z,24.88
2023-04-06T02:01:08.698Z,25.33
2023-04-06T02:03:48.784Z,27.05
2023-04-06T02:06:16.313Z,28.38
2023-04-06T02:08:43.820Z,25.88
2023-04-06T02:11:11.212Z,30.45
2023-04-06T02:13:45.414Z,26.58
2023-04-06T02:16:13.032Z,26.70
2023-04-06T02:18:40.563Z,25.10
2023-04-06T02:21:07.992Z,23.23
2023-04-06T02:23:35.374Z,22.73
2023-04-06T02:26:02.740Z,31.80
2023-04-06T02:28:30.150Z,25.40
2023-04-06T02:30:58.869Z,40.05
2023-04-06T02:33:28.379Z,41.28
2023-04-06T02:35:56.026Z,30.20
2023-04-06T02:38:24.041Z,38.17
2023-04-06T02:40:53.230Z,33.25
2023-04-06T02:43:23.983Z,27.15
2023-04-06T02:45:56.360Z,27.73
2023-04-06T02:48:26.663Z,32.97
2023-04-06T02:50:54.398Z,34.15
2023-04-06T02:53:22.057Z,24.25
2023-04-06T02:55:49.462Z,31.80
2023-04-06T02:58:16.923Z,23.00
2023-04-06T03:00:52.424Z,31.75
2023-04-06T03:03:19.916Z,33.30
2023-04-06T03:05:49.251Z,27.25
2023-04-06T03:08:20.602Z,21.45
2023-04-06T03:10:47.980Z,32.72
2023-04-06T03:13:17.175Z,26.38
2023-04-06T03:15:53.332Z,26.52
2023-04-06T03:18:23.814Z,30.23
2023-04-06T03:20:54.764Z,28.15
2023-04-06T03:23:24.094Z,21.25
2023-04-06T03:25:56.424Z,28.58
2023-04-06T03:28:23.859Z,33.22
2023-04-06T03:30:57.907Z,29.25
2023-04-06T03:33:40.974Z,31.95
2023-04-06T03:36:12.498Z,28.80
2023-04-06T03:38:42.484Z,26.83
2023-04-06T03:41:13.468Z,36.53
2023-04-06T03:43:44.373Z,37.33
2023-04-06T03:46:11.921Z,44.65
2023-04-06T03:48:39.388Z,36.17
2023-04-06T03:51:07.962Z,34.78
2023-04-06T03:53:37.764Z,32.38
2023-04-06T03:56:05.505Z,35.15
2023-04-06T03:58:33.512Z,29.95
2023-04-06T04:01:01.069Z,30.55
2023-04-06T04:03:29.022Z,32.78
2023-04-06T04:05:57.043Z,32.47
2023-04-06T04:08:26.475Z,34.08
2023-04-06T04:13:22.506Z,37.08
2023-04-06T04:15:52.249Z,38.90
2023-04-06T04:18:19.652Z,38.00
2023-04-06T04:20:47.020Z,35.95
2023-04-06T04:23:14.493Z,33.10
2023-04-06T04:25:42.546Z,29.73
2023-04-06T04:28:10.059Z,40.97
2023-04-06T04:30:40.062Z,33.33
2023-04-06T04:33:11.072Z,34.65
2023-04-06T04:38:07.162Z,39.72
2023-04-06T04:40:37.609Z,25.40
2023-04-06T04:43:09.132Z,29.20
2023-04-06T04:45:36.600Z,32.08
2023-04-06T04:48:18.003Z,31.60
2023-04-06T04:50:52.212Z,40.45
2023-04-06T04:53:25.165Z,32.03
2023-04-06T04:55:56.052Z,35.22
2023-04-06T04:58:24.289Z,42.88
2023-04-06T05:00:56.915Z,34.15
2023-04-06T05:06:00.959Z,38.40
2023-04-06T05:08:32.172Z,27.45
2023-04-06T05:11:00.857Z,33.70
2023-04-06T05:13:31.614Z,27.88
2023-04-06T05:16:00.647Z,36.28
2023-04-06T05:18:31.694Z,44.10
2023-04-06T05:21:01.522Z,35.20
2023-04-06T05:23:40.416Z,36.90
2023-04-06T05:26:07.916Z,30.50
2023-04-06T05:28:35.485Z,28.88
2023-04-06T05:31:03.701Z,36.25
2023-04-06T05:33:38.787Z,37.80
2023-04-06T05:36:15.385Z,35.42
2023-04-06T05:38:45.843Z,29.08
2023-04-06T05:41:32.184Z,33.63
2023-04-06T05:43:59.690Z,37.60
2023-04-06T05:48:56.956Z,30.63
2023-04-06T05:51:28.999Z,25.85
2023-04-06T05:53:56.427Z,33.15
2023-04-06T05:56:24.651Z,33.58
2023-04-06T05:58:52.183Z,55.50
2023-04-06T06:01:25.685Z,44.78
2023-04-06T06:03:53.290Z,40.75
2023-04-06T06:06:21.299Z,30.38
2023-04-06T06:09:05.089Z,29.63
2023-04-06T06:11:38.210Z,45.58
2023-04-06T06:14:05.846Z,49.35
2023-04-06T06:16:36.931Z,40.80
2023-04-06T06:19:04.390Z,38.95
2023-04-06T06:21:33.267Z,39.35
2023-04-06T06:24:00.884Z,39.40
2023-04-06T06:26:29.588Z,39.05
2023-04-06T06:28:57.023Z,43.92
2023-04-06T06:33:52.992Z,29.33
2023-04-06T06:36:21.624Z,28.88
2023-04-06T06:38:49.276Z,32.17
2023-04-06T06:41:19.841Z,24.00
2023-04-06T06:43:48.974Z,29.13
2023-04-06T06:46:16.509Z,36.97
2023-04-06T06:48:44.061Z,34.28
2023-04-06T06:51:12.600Z,31.38
2023-04-06T06:53:41.614Z,24.38
2023-04-06T06:56:09.000Z,22.40
2023-04-06T06:58:36.872Z,26.02
2023-04-06T07:01:06.526Z,39.10
2023-04-06T07:03:35.486Z,19.92
2023-04-06T07:06:02.953Z,31.70
2023-04-06T07:08:30.494Z,20.65
2023-04-06T07:10:57.935Z,31.98
2023-04-06T07:13:25.630Z,14.98
2023-04-06T07:15:56.487Z,16.20
2023-04-06T07:18:25.539Z,16.73
2023-04-06T07:20:53.133Z,31.40
2023-04-06T07:23:20.784Z,24.40
2023-04-06T07:25:48.203Z,21.40
2023-04-06T07:28:15.619Z,27.02
2023-04-06T07:30:43.424Z,19.13
2023-04-06T07:33:12.277Z,17.27
2023-04-06T07:35:42.137Z,19.05
2023-04-06T07:38:09.984Z,22.20
2023-04-06T07:40:37.603Z,19.20
2023-04-06T07:43:05.146Z,21.10
2023-04-06T07:45:32.734Z,19.23
2023-04-06T07:48:01.787Z,18.67
2023-04-06T07:52:59.660Z,15.88
2023-04-06T07:55:28.329Z,19.65
2023-04-06T07:57:55.708Z,18.35
2023-04-06T08:00:23.504Z,16.67
2023-04-06T08:02:51.367Z,18.60
2023-04-06T08:07:47.165Z,17.45
2023-04-06T08:10:15.964Z,15.00
2023-04-06T08:12:43.370Z,12.73
2023-04-06T08:15:11.124Z,20.85
2023-04-06T08:17:38.578Z,25.00
2023-04-06T08:20:06.409Z,19.33
2023-04-06T08:22:33.815Z,22.67
2023-04-06T08:25:01.261Z,17.90
2023-04-06T08:27:30.216Z,16.27
2023-04-06T08:29:57.632Z,33.30
2023-04-06T08:32:25.047Z,15.77
2023-04-06T08:34:55.045Z,16.00
2023-04-06T08:37:23.465Z,16.30
2023-04-06T08:39:51.249Z,17.42
2023-04-06T08:42:22.446Z,24.40
2023-04-06T08:44:53.510Z,19.10
2023-04-06T08:47:24.564Z,23.15
2023-04-06T08:49:52.739Z,17.38
2023-04-06T08:52:20.348Z,18.75
2023-04-06T08:54:47.823Z,18.52
2023-04-06T08:57:15.485Z,15.13
2023-04-06T08:59:43.045Z,18.48
2023-04-06T09:02:14.780Z,32.92
2023-04-06T09:04:42.334Z,22.83
2023-04-06T09:07:09.774Z,20.35
2023-04-06T09:09:37.871Z,20.52
2023-04-06T09:14:38.394Z,18.67
2023-04-06T09:17:06.192Z,21.17
2023-04-06T09:19:34.950Z,30.58
2023-04-06T09:22:05.546Z,36.22
2023-04-06T09:24:41.519Z,21.00
2023-04-06T09:27:08.924Z,30.00
2023-04-06T09:29:37.592Z,24.60
2023-04-06T09:32:05.909Z,22.33
2023-04-06T09:34:35.160Z,30.10
2023-04-06T09:37:02.797Z,25.67
2023-04-06T09:39:30.376Z,21.88
2023-04-06T09:41:57.956Z,21.05
2023-04-06T09:44:25.947Z,18.83
2023-04-06T09:49:29.169Z,23.42
2023-04-06T09:52:00.333Z,22.05
2023-04-06T09:54:29.976Z,20.55
2023-04-06T09:56:59.625Z,27.90
2023-04-06T09:59:31.264Z,25.40
2023-04-06T10:02:00.365Z,26.42
2023-04-06T10:04:34.052Z,19.65
2023-04-06T10:07:03.980Z,20.05
2023-04-06T10:09:36.441Z,21.50
2023-04-06T10:12:05.171Z,24.50
2023-04-06T10:14:33.306Z,21.50
2023-04-06T10:17:01.317Z,26.88
2023-04-06T10:19:31.838Z,28.35
2023-04-06T10:22:01.182Z,31.85
2023-04-06T10:24:29.922Z,29.05
2023-04-06T10:27:01.186Z,28.50
2023-04-06T10:29:28.710Z,25.48
2023-04-06T10:31:57.032Z,25.02
2023-04-06T10:34:24.443Z,28.52
2023-04-06T10:36:51.857Z,24.52
2023-04-06T10:39:26.900Z,27.48
2023-04-06T10:41:55.872Z,29.88
2023-04-06T10:44:23.488Z,32.75
2023-04-06T10:46:57.422Z,26.80
2023-04-06T10:49:27.448Z,24.88
2023-04-06T10:51:55.882Z,28.02
2023-04-06T10:54:24.440Z,27.60
2023-04-06T10:56:51.830Z,26.30
2023-04-06T10:59:22.751Z,24.90
2023-04-06T11:01:50.709Z,22.75
2023-04-06T11:04:18.844Z,24.10
2023-04-06T11:06:48.527Z,26.15
2023-04-06T11:09:24.809Z,36.15
2023-04-06T11:11:52.482Z,26.63
2023-04-06T11:14:20.266Z,26.50
2023-04-06T11:16:50.889Z,26.30
2023-04-06T11:19:18.807Z,24.08
2023-04-06T11:21:48.633Z,26.75
2023-04-06T11:24:17.252Z,26.02
2023-04-06T11:26:45.761Z,27.73
2023-04-06T11:29:13.861Z,29.75
2023-04-06T11:31:42.064Z,19.42
2023-04-06T11:34:14.466Z,25.85
2023-04-06T11:36:42.781Z,28.73
2023-04-06T11:39:10.691Z,19.17
2023-04-06T11:44:05.559Z,24.35
2023-04-06T11:46:33.128Z,25.52
2023-04-06T11:49:00.801Z,22.60
2023-04-06T11:51:29.748Z,24.20
2023-04-06T11:53:57.731Z,25.63
2023-04-06T11:58:52.564Z,25.50
2023-04-06T12:01:19.984Z,24.73
2023-04-06T12:03:47.720Z,32.47
2023-04-06T12:11:11.559Z,32.17
2023-04-06T12:13:39.354Z,27.60
2023-04-06T12:16:07.204Z,35.13
2023-04-06T12:18:34.634Z,27.55
2023-04-06T12:21:02.079Z,26.38
2023-04-06T12:23:29.589Z,40.25
2023-04-06T12:25:57.197Z,34.38
2023-04-06T12:28:27.818Z,29.90
2023-04-06T12:30:56.116Z,25.25
2023-04-06T12:33:23.621Z,30.60
2023-04-06T12:35:51.141Z,33.40
2023-04-06T12:38:18.608Z,35.67
2023-04-06T12:40:46.014Z,37.20
2023-04-06T12:43:14.000Z,24.15
2023-04-06T12:48:10.455Z,21.42
2023-04-06T12:50:37.912Z,23.23
2023-04-06T12:53:05.581Z,21.77
2023-04-06T12:55:35.133Z,22.50
2023-04-06T12:58:02.772Z,22.65
2023-04-06T13:00:31.610Z,24.98
2023-04-06T13:02:59.182Z,27.05
2023-04-06T13:05:29.338Z,25.15
2023-04-06T13:07:58.115Z,20.58
2023-04-06T13:10:25.517Z,21.08
2023-04-06T13:12:53.000Z,26.15
2023-04-06T13:15:20.518Z,30.20
2023-04-06T13:17:47.962Z,20.17
2023-04-06T13:20:15.452Z,24.42
2023-04-06T13:22:44.213Z,22.17
2023-04-06T13:25:11.634Z,24.30
2023-04-06T13:27:39.057Z,22.88
2023-04-06T13:30:07.137Z,26.65
2023-04-06T13:32:34.687Z,25.60
2023-04-06T13:35:03.340Z,20.90
2023-04-06T13:37:30.908Z,18.75
2023-04-06T13:39:59.750Z,28.90
2023-04-06T13:42:27.760Z,25.98
2023-04-06T13:44:55.435Z,31.63
2023-04-06T13:47:22.866Z,31.65
2023-04-06T13:49:51.837Z,31.23
2023-04-06T13:52:19.423Z,25.77
2023-04-06T13:54:46.863Z,17.83
2023-04-06T13:57:15.704Z,34.50
2023-04-06T14:02:15.640Z,27.52
2023-04-06T14:04:43.284Z,24.05
2023-04-06T14:07:10.841Z,19.23
2023-04-06T14:09:38.275Z,19.70
2023-04-06T14:12:05.737Z,16.85
2023-04-06T14:14:34.485Z,22.45
2023-04-06T14:17:01.935Z,21.70
2023-04-06T14:19:29.559Z,18.90
2023-04-06T14:21:57.274Z,19.45
2023-04-06T14:24:24.679Z,20.52
2023-04-06T14:26:52.160Z,25.38
2023-04-06T14:29:19.646Z,20.30
2023-04-06T14:31:48.930Z,26.92
2023-04-06T14:34:17.666Z,18.63
2023-04-06T14:36:45.136Z,17.48
2023-04-06T14:39:12.523Z,22.17
2023-04-06T14:41:39.914Z,22.90
2023-04-06T14:44:07.388Z,22.45
2023-04-06T14:46:34.964Z,21.55
2023-04-06T14:49:04.478Z,24.67
2023-04-06T14:51:31.853Z,18.10
2023-04-06T14:53:59.331Z,21.92
2023-04-06T14:56:26.717Z,20.25
2023-04-06T14:58:54.640Z,21.58
2023-04-06T15:01:22.389Z,18.80
2023-04-06T15:03:50.301Z,29.08
2023-04-06T15:06:21.453Z,22.02
2023-04-06T15:08:49.443Z,22.75
2023-04-06T15:13:44.352Z,22.42
2023-04-06T15:16:12.110Z,21.77
2023-04-06T15:18:39.532Z,24.50
2023-04-06T15:21:07.090Z,32.28
2023-04-06T15:23:36.162Z,24.70
2023-04-06T15:26:03.544Z,21.25
2023-04-06T15:28:31.417Z,21.73
2023-04-06T15:30:59.047Z,19.70
2023-04-06T15:33:27.713Z,19.20
2023-04-06T15:35:55.518Z,29.65
2023-04-06T15:38:23.526Z,20.60
2023-04-06T15:43:19.677Z,24.63
2023-04-06T15:45:47.188Z,25.55
2023-04-06T15:48:14.650Z,21.40
2023-04-06T15:50:42.054Z,21.45
2023-04-06T15:53:09.418Z,17.70
2023-04-06T15:55:36.851Z,24.08
2023-04-06T15:58:04.301Z,26.83
2023-04-06T16:00:33.067Z,27.27
2023-04-06T16:03:00.988Z,22.60
2023-04-06T16:05:33.978Z,24.48
2023-04-06T16:08:02.192Z,18.83
2023-04-06T16:10:29.676Z,20.58
2023-04-06T16:12:57.123Z,29.60
2023-04-06T16:15:24.574Z,28.48
2023-04-06T16:17:53.315Z,31.10
2023-04-06T16:20:20.708Z,23.23
2023-04-06T16:22:49.588Z,14.48
2023-04-06T16:25:17.128Z,15.82
2023-04-06T16:27:44.548Z,15.05
2023-04-06T16:30:12.229Z,15.88
2023-04-06T16:32:39.656Z,16.85
2023-04-06T16:35:09.078Z,14.20
2023-04-06T16:37:36.493Z,18.23
2023-04-06T16:40:04.138Z,14.20
2023-04-06T16:42:31.689Z,15.52
2023-04-06T16:44:59.539Z,13.57
2023-04-06T16:47:27.000Z,15.20
2023-04-06T16:49:55.329Z,20.50
2023-04-06T16:52:35.651Z,16.73
2023-04-06T16:55:03.044Z,17.20
2023-04-06T16:57:30.634Z,17.55
2023-04-06T16:59:58.286Z,22.90
2023-04-06T17:02:25.921Z,19.15
2023-04-06T17:04:53.394Z,19.27
2023-04-06T17:07:22.188Z,20.20
2023-04-06T17:09:50.949Z,16.80
2023-04-06T17:12:18.319Z,17.88
2023-04-06T17:14:45.801Z,16.75
2023-04-06T17:17:13.256Z,14.23
2023-04-06T17:19:40.689Z,15.27
2023-04-06T17:22:08.227Z,19.85
2023-04-06T17:24:36.042Z,16.25
2023-04-06T17:27:04.784Z,15.40
2023-04-06T17:29:32.219Z,15.20
2023-04-06T17:31:59.629Z,14.95
2023-04-06T17:34:27.065Z,14.30
2023-04-06T17:36:54.447Z,17.10
2023-04-06T17:39:21.881Z,17.30
2023-04-06T17:41:49.244Z,11.77
2023-04-06T17:44:17.981Z,14.77
2023-04-06T17:46:45.640Z,15.70
2023-04-06T17:49:13.346Z,22.02
2023-04-06T17:51:40.757Z,22.75
2023-04-06T17:54:08.273Z,15.70
2023-04-06T17:56:35.775Z,19.23
2023-04-06T17:59:07.663Z,18.80
2023-04-06T18:01:36.484Z,20.33
2023-04-06T18:04:04.005Z,21.63
2023-04-06T18:06:31.719Z,22.02
2023-04-06T18:08:59.770Z,21.88
2023-04-06T18:11:29.381Z,24.10
2023-04-06T18:13:56.748Z,23.88
2023-04-06T18:16:24.844Z,26.00
2023-04-06T18:18:53.849Z,19.52
2023-04-06T18:21:21.248Z,18.67
2023-04-06T18:23:49.250Z,21.33
2023-04-06T18:28:44.046Z,23.10
2023-04-06T18:31:11.421Z,26.35
2023-04-06T18:33:38.820Z,23.60
2023-04-06T18:36:07.903Z,27.92
2023-04-06T18:38:35.288Z,22.52
2023-04-06T18:41:02.700Z,24.92
2023-04-06T18:43:30.356Z,30.15
2023-04-06T18:45:57.722Z,25.17
2023-04-06T18:48:25.192Z,24.70
2023-04-06T18:50:52.930Z,21.63
2023-04-06T18:53:22.083Z,23.38
2023-04-06T18:55:49.607Z,23.30
2023-04-06T18:58:17.020Z,20.67
2023-04-06T19:00:44.417Z,22.55
2023-04-06T19:03:11.964Z,19.10
2023-04-06T19:05:41.396Z,19.42
2023-04-06T19:08:08.899Z,17.67
2023-04-06T19:10:38.493Z,17.20
2023-04-06T19:13:06.121Z,17.45
2023-04-06T19:15:33.585Z,14.52
2023-04-06T19:18:01.184Z,16.65
2023-04-06T19:20:28.581Z,18.35
2023-04-06T19:22:57.233Z,16.58
2023-04-06T19:25:24.976Z,22.17
2023-04-06T19:27:53.708Z,17.45
2023-04-06T19:30:21.203Z,20.65
2023-04-06T19:32:48.889Z,20.13
2023-04-06T19:35:16.354Z,18.13
2023-04-06T19:37:44.278Z,20.95
2023-04-06T19:40:11.780Z,19.65
2023-04-06T19:42:39.533Z,16.38
2023-04-06T19:45:08.873Z,22.88
2023-04-06T19:47:36.302Z,20.20
2023-04-06T19:50:04.236Z,17.23
2023-04-06T19:55:00.576Z,17.85
2023-04-06T19:57:28.437Z,20.65
2023-04-06T19:59:56.262Z,21.20
2023-04-06T20:07:20.591Z,21.05
2023-04-06T20:09:48.403Z,18.65
2023-04-06T20:12:16.263Z,20.27
2023-04-06T20:14:44.100Z,20.50
2023-04-06T20:17:11.921Z,19.73
2023-04-06T20:22:07.574Z,20.65
2023-04-06T20:24:36.440Z,17.55
2023-04-06T20:27:04.287Z,23.60
2023-04-06T20:29:32.087Z,20.98
2023-04-06T20:32:01.342Z,20.40
2023-04-06T20:34:29.807Z,20.17
2023-04-06T20:36:57.717Z,21.77
2023-04-06T20:39:27.157Z,20.70
2023-04-06T20:41:57.283Z,18.17
2023-04-06T20:44:26.158Z,16.23
2023-04-06T20:46:53.645Z,20.73
2023-04-06T20:49:23.413Z,17.77
2023-04-06T20:51:51.287Z,19.05
2023-04-06T20:56:46.318Z,18.70
2023-04-06T20:59:15.458Z,17.23
2023-04-06T21:01:43.939Z,22.10
2023-04-06T21:04:11.480Z,18.80
2023-04-06T21:06:38.924Z,20.10
2023-04-06T21:09:06.350Z,17.30
2023-04-06T21:11:33.850Z,16.42
2023-04-06T21:14:01.222Z,16.55
2023-04-06T21:16:29.960Z,20.90
2023-04-06T21:18:57.324Z,23.75
2023-04-06T21:21:24.742Z,18.83
2023-04-06T21:23:53.060Z,20.75
2023-04-06T21:26:20.538Z,16.65
2023-04-06T21:28:47.883Z,19.40
2023-04-06T21:31:16.376Z,21.10
2023-04-06T21:33:45.173Z,19.33
2023-04-06T21:36:12.554Z,16.95
2023-04-06T21:38:39.922Z,15.75
2023-04-06T21:41:07.439Z,16.45
2023-04-06T21:43:35.595Z,17.92
2023-04-06T21:46:03.101Z,16.00
2023-04-06T21:48:30.491Z,18.98
2023-04-06T21:50:59.214Z,15.23
2023-04-06T21:53:26.608Z,15.90
2023-04-06T21:55:53.970Z,17.23
2023-04-06T21:58:21.562Z,15.65
2023-04-06T22:00:48.945Z,17.25
2023-04-06T22:03:16.474Z,17.83
2023-04-06T22:05:44.049Z,15.40
2023-04-06T22:08:17.886Z,17.25
2023-04-06T22:10:53.169Z,17.80
2023-04-06T22:13:20.537Z,18.17
2023-04-06T22:15:47.955Z,13.90
2023-04-06T22:18:15.328Z,15.73
2023-04-06T22:20:42.758Z,15.82
2023-04-06T22:23:10.733Z,15.75
2023-04-06T22:28:06.748Z,16.90
2023-04-06T22:30:34.198Z,16.13
2023-04-06T22:33:01.588Z,19.42
2023-04-06T22:35:29.016Z,15.55
2023-04-06T22:37:56.823Z,13.23
2023-04-06T22:40:24.362Z,17.80
2023-04-06T22:42:51.750Z,14.20
2023-04-06T22:45:20.553Z,15.93
2023-04-06T22:47:48.037Z,18.90
2023-04-06T22:50:15.871Z,18.25
2023-04-06T22:52:43.312Z,17.27
2023-04-06T22:55:10.790Z,16.33
2023-04-06T22:57:38.219Z,15.38
2023-04-06T23:00:06.307Z,16.05
2023-04-06T23:02:35.139Z,16.50
2023-04-06T23:05:02.808Z,19.27
2023-04-06T23:07:32.418Z,13.60
2023-04-06T23:09:59.836Z,20.95
2023-04-06T23:12:27.316Z,15.13
2023-04-06T23:14:54.725Z,14.88
2023-04-06T23:17:22.193Z,19.80
2023-04-06T23:19:51.326Z,16.55
2023-04-06T23:22:18.685Z,28.70
2023-04-06T23:24:46.207Z,17.52
2023-04-06T23:27:13.597Z,16.33
2023-04-06T23:29:41.256Z,14.18
2023-04-06T23:32:08.711Z,17.00
2023-04-06T23:34:36.110Z,19.02
2023-04-06T23:37:04.870Z,17.80
2023-04-06T23:39:32.309Z,17.00
2023-04-06T23:41:59.732Z,14.35
2023-04-06T23:44:29.843Z,15.48
2023-04-06T23:46:57.280Z,18.70
2023-04-06T23:49:24.658Z,17.10
2023-04-06T23:51:52.480Z,20.95
2023-04-06T23:54:21.219Z,19.83
2023-04-06T23:56:50.451Z,17.10
2023-04-06T23:59:17.851Z,17.10
